sensor_id;sensor_type;location;lat;lon;timestamp;temperature;humidity
18876;DHT22;9570;50.854;13.778;2022-11-20T00:01:39;-5.00;99.90
18876;DHT22;9570;50.854;13.778;2022-11-20T00:04:05;-5.00;99.90
18876;DHT22;9570;50.854;13.778;2022-11-20T00:06:31;-5.00;99.90
18876;DHT22;9570;50.854;13.778;2022-11-20T00:08:58;-5.00;99.90
18876;DHT22;9570;50.854;13.778;2022-11-20T00:11:26;-5.00;99.90
18876;DHT22;9570;50.854;13.778;2022-11-20T00:13:54;-5.10;99.90
18876;DHT22;9570;50.854;13.778;2022-11-20T00:16:23;-5.10;99.90
18876;DHT22;9570;50.854;13.778;2022-11-20T00:18:49;-5.10;99.90
18876;DHT22;9570;50.854;13.778;2022-11-20T00:21:24;-5.10;99.90
18876;DHT22;9570;50.854;13.778;2022-11-20T00:23:51;-5.10;99.90
18876;DHT22;9570;50.854;13.778;2022-11-20T00:26:20;-5.10;99.90
18876;DHT22;9570;50.854;13.778;2022-11-20T00:28:53;-5.20;99.90
18876;DHT22;9570;50.854;13.778;2022-11-20T00:31:19;-5.20;99.90
18876;DHT22;9570;50.854;13.778;2022-11-20T00:33:45;-5.20;99.90
18876;DHT22;9570;50.854;13.778;2022-11-20T00:36:13;-5.30;99.90
18876;DHT22;9570;50.854;13.778;2022-11-20T00:38:39;-5.30;99.90
18876;DHT22;9570;50.854;13.778;2022-11-20T00:41:07;-5.30;99.90
18876;DHT22;9570;50.854;13.778;2022-11-20T00:43:33;-5.30;99.90
18876;DHT22;9570;50.854;13.778;2022-11-20T00:46:10;-5.40;99.90
18876;DHT22;9570;50.854;13.778;2022-11-20T00:48:36;-5.40;99.90
18876;DHT22;9570;50.854;13.778;2022-11-20T00:51:02;-5.30;99.90
18876;DHT22;9570;50.854;13.778;2022-11-20T00:53:28;-5.30;99.90
18876;DHT22;9570;50.854;13.778;2022-11-20T00:58:20;-5.30;99.90
18876;DHT22;9570;50.854;13.778;2022-11-20T01:00:46;-5.30;99.90
18876;DHT22;9570;50.854;13.778;2022-11-20T01:03:11;-5.30;99.90
18876;DHT22;9570;50.854;13.778;2022-11-20T01:05:37;-5.30;99.90
18876;DHT22;9570;50.854;13.778;2022-11-20T01:08:02;-5.30;99.90
18876;DHT22;9570;50.854;13.778;2022-11-20T01:10:28;-5.30;99.90
18876;DHT22;9570;50.854;13.778;2022-11-20T01:12:54;-5.30;99.90
18876;DHT22;9570;50.854;13.778;2022-11-20T01:15:39;-5.30;99.90
18876;DHT22;9570;50.854;13.778;2022-11-20T01:18:05;-5.30;99.90
18876;DHT22;9570;50.854;13.778;2022-11-20T01:20:34;-5.40;99.90
18876;DHT22;9570;50.854;13.778;2022-11-20T01:23:01;-5.30;99.90
18876;DHT22;9570;50.854;13.778;2022-11-20T01:25:26;-5.40;99.90
18876;DHT22;9570;50.854;13.778;2022-11-20T01:27:52;-5.30;99.90
18876;DHT22;9570;50.854;13.778;2022-11-20T01:30:17;-5.40;99.90
18876;DHT22;9570;50.854;13.778;2022-11-20T01:32:43;-5.50;99.90
18876;DHT22;9570;50.854;13.778;2022-11-20T01:35:08;-5.50;99.90
18876;DHT22;9570;50.854;13.778;2022-11-20T01:37:34;-5.40;99.90
18876;DHT22;9570;50.854;13.778;2022-11-20T01:40:00;-5.40;99.90
18876;DHT22;9570;50.854;13.778;2022-11-20T01:42:26;-5.40;99.90
18876;DHT22;9570;50.854;13.778;2022-11-20T01:45:48;-5.40;99.90
18876;DHT22;9570;50.854;13.778;2022-11-20T01:48:18;-5.50;99.90
18876;DHT22;9570;50.854;13.778;2022-11-20T01:50:44;-5.50;99.90
18876;DHT22;9570;50.854;13.778;2022-11-20T01:53:13;-5.50;99.90
18876;DHT22;9570;50.854;13.778;2022-11-20T01:55:41;-5.50;99.90
18876;DHT22;9570;50.854;13.778;2022-11-20T01:58:08;-5.50;99.90
18876;DHT22;9570;50.854;13.778;2022-11-20T02:00:35;-5.50;99.90
18876;DHT22;9570;50.854;13.778;2022-11-20T02:03:04;-5.50;99.90
18876;DHT22;9570;50.854;13.778;2022-11-20T02:08:00;-5.50;99.90
18876;DHT22;9570;50.854;13.778;2022-11-20T02:10:27;-5.50;99.90
18876;DHT22;9570;50.854;13.778;2022-11-20T02:12:53;-5.50;99.90
18876;DHT22;9570;50.854;13.778;2022-11-20T02:15:37;-5.50;99.90
18876;DHT22;9570;50.854;13.778;2022-11-20T02:18:04;-5.50;99.90
18876;DHT22;9570;50.854;13.778;2022-11-20T02:20:30;-5.50;99.90
18876;DHT22;9570;50.854;13.778;2022-11-20T02:23:22;-5.50;99.90
18876;DHT22;9570;50.854;13.778;2022-11-20T02:25:50;-5.50;99.90
18876;DHT22;9570;50.854;13.778;2022-11-20T02:28:17;-5.60;99.90
18876;DHT22;9570;50.854;13.778;2022-11-20T02:30:43;-5.60;99.90
18876;DHT22;9570;50.854;13.778;2022-11-20T02:33:09;-5.60;99.90
18876;DHT22;9570;50.854;13.778;2022-11-20T02:38:02;-5.60;99.90
18876;DHT22;9570;50.854;13.778;2022-11-20T02:40:28;-5.60;99.90
18876;DHT22;9570;50.854;13.778;2022-11-20T02:42:55;-5.60;99.90
18876;DHT22;9570;50.854;13.778;2022-11-20T02:45:21;-5.70;99.90
18876;DHT22;9570;50.854;13.778;2022-11-20T02:47:48;-5.70;99.90
18876;DHT22;9570;50.854;13.778;2022-11-20T02:50:14;-5.70;99.90
18876;DHT22;9570;50.854;13.778;2022-11-20T02:52:39;-5.70;99.90
18876;DHT22;9570;50.854;13.778;2022-11-20T02:55:05;-5.70;99.90
18876;DHT22;9570;50.854;13.778;2022-11-20T02:57:31;-5.70;99.90
18876;DHT22;9570;50.854;13.778;2022-11-20T02:59:56;-5.80;99.90
18876;DHT22;9570;50.854;13.778;2022-11-20T03:02:22;-5.80;99.90
18876;DHT22;9570;50.854;13.778;2022-11-20T03:04:47;-5.80;99.90
18876;DHT22;9570;50.854;13.778;2022-11-20T03:07:13;-5.80;99.90
18876;DHT22;9570;50.854;13.778;2022-11-20T03:09:38;-5.80;99.90
18876;DHT22;9570;50.854;13.778;2022-11-20T03:12:04;-5.70;99.90
18876;DHT22;9570;50.854;13.778;2022-11-20T03:14:30;-5.80;99.90
18876;DHT22;9570;50.854;13.778;2022-11-20T03:16:55;-5.90;99.90
18876;DHT22;9570;50.854;13.778;2022-11-20T03:19:21;-5.80;99.90
18876;DHT22;9570;50.854;13.778;2022-11-20T03:21:47;-5.80;99.90
18876;DHT22;9570;50.854;13.778;2022-11-20T03:24:13;-5.80;99.90
18876;DHT22;9570;50.854;13.778;2022-11-20T03:26:39;-5.90;99.90
18876;DHT22;9570;50.854;13.778;2022-11-20T03:29:05;-5.90;99.90
18876;DHT22;9570;50.854;13.778;2022-11-20T03:31:36;-5.90;99.90
18876;DHT22;9570;50.854;13.778;2022-11-20T03:34:03;-6.00;99.90
18876;DHT22;9570;50.854;13.778;2022-11-20T03:36:30;-6.00;99.90
18876;DHT22;9570;50.854;13.778;2022-11-20T03:38:56;-6.00;99.90
18876;DHT22;9570;50.854;13.778;2022-11-20T03:41:27;-6.00;99.90
18876;DHT22;9570;50.854;13.778;2022-11-20T03:43:58;-6.00;99.90
18876;DHT22;9570;50.854;13.778;2022-11-20T03:46:25;-6.00;99.90
18876;DHT22;9570;50.854;13.778;2022-11-20T03:51:22;-6.10;99.90
18876;DHT22;9570;50.854;13.778;2022-11-20T03:53:50;-6.10;99.90
18876;DHT22;9570;50.854;13.778;2022-11-20T03:56:18;-6.10;99.90
18876;DHT22;9570;50.854;13.778;2022-11-20T03:58:43;-6.10;99.90
18876;DHT22;9570;50.854;13.778;2022-11-20T04:01:17;-6.10;99.90
18876;DHT22;9570;50.854;13.778;2022-11-20T04:03:44;-6.10;99.90
18876;DHT22;9570;50.854;13.778;2022-11-20T04:06:12;-6.00;99.90
18876;DHT22;9570;50.854;13.778;2022-11-20T04:08:38;-6.10;99.90
18876;DHT22;9570;50.854;13.778;2022-11-20T04:11:14;-6.10;99.90
18876;DHT22;9570;50.854;13.778;2022-11-20T04:13:40;-6.00;99.90
18876;DHT22;9570;50.854;13.778;2022-11-20T04:16:07;-6.10;99.90
18876;DHT22;9570;50.854;13.778;2022-11-20T04:18:34;-6.10;99.90
18876;DHT22;9570;50.854;13.778;2022-11-20T04:21:00;-6.10;99.90
18876;DHT22;9570;50.854;13.778;2022-11-20T04:23:26;-6.10;99.90
18876;DHT22;9570;50.854;13.778;2022-11-20T04:25:51;-6.20;99.90
18876;DHT22;9570;50.854;13.778;2022-11-20T04:28:17;-6.20;99.90
18876;DHT22;9570;50.854;13.778;2022-11-20T04:30:42;-6.20;99.90
18876;DHT22;9570;50.854;13.778;2022-11-20T04:33:08;-6.20;99.90
18876;DHT22;9570;50.854;13.778;2022-11-20T04:35:34;-6.30;99.90
18876;DHT22;9570;50.854;13.778;2022-11-20T04:38:00;-6.20;99.90
18876;DHT22;9570;50.854;13.778;2022-11-20T04:40:25;-6.20;99.90
18876;DHT22;9570;50.854;13.778;2022-11-20T04:42:51;-6.20;99.90
18876;DHT22;9570;50.854;13.778;2022-11-20T04:45:16;-6.20;99.90
18876;DHT22;9570;50.854;13.778;2022-11-20T04:47:42;-6.20;99.90
18876;DHT22;9570;50.854;13.778;2022-11-20T04:50:08;-6.20;99.90
18876;DHT22;9570;50.854;13.778;2022-11-20T04:52:33;-6.20;99.90
18876;DHT22;9570;50.854;13.778;2022-11-20T04:54:59;-6.20;99.90
18876;DHT22;9570;50.854;13.778;2022-11-20T04:57:24;-6.30;99.90
18876;DHT22;9570;50.854;13.778;2022-11-20T04:59:50;-6.30;99.90
18876;DHT22;9570;50.854;13.778;2022-11-20T05:02:15;-6.30;99.90
18876;DHT22;9570;50.854;13.778;2022-11-20T05:04:41;-6.30;99.90
18876;DHT22;9570;50.854;13.778;2022-11-20T05:07:06;-6.30;99.90
18876;DHT22;9570;50.854;13.778;2022-11-20T05:09:32;-6.30;99.90
18876;DHT22;9570;50.854;13.778;2022-11-20T05:11:57;-6.30;99.90
18876;DHT22;9570;50.854;13.778;2022-11-20T05:14:23;-6.30;99.90
18876;DHT22;9570;50.854;13.778;2022-11-20T05:16:48;-6.30;99.90
18876;DHT22;9570;50.854;13.778;2022-11-20T05:19:14;-6.40;99.90
18876;DHT22;9570;50.854;13.778;2022-11-20T05:21:39;-6.30;99.90
18876;DHT22;9570;50.854;13.778;2022-11-20T05:24:05;-6.30;99.90
18876;DHT22;9570;50.854;13.778;2022-11-20T05:26:32;-6.30;99.90
18876;DHT22;9570;50.854;13.778;2022-11-20T05:28:58;-6.30;99.90
18876;DHT22;9570;50.854;13.778;2022-11-20T05:31:24;-6.30;99.90
18876;DHT22;9570;50.854;13.778;2022-11-20T05:33:50;-6.30;99.90
18876;DHT22;9570;50.854;13.778;2022-11-20T05:36:16;-6.40;99.90
18876;DHT22;9570;50.854;13.778;2022-11-20T05:38:43;-6.40;99.90
18876;DHT22;9570;50.854;13.778;2022-11-20T05:43:37;-6.40;99.90
18876;DHT22;9570;50.854;13.778;2022-11-20T05:46:04;-6.40;99.90
18876;DHT22;9570;50.854;13.778;2022-11-20T05:48:30;-6.40;99.90
18876;DHT22;9570;50.854;13.778;2022-11-20T05:50:57;-6.50;99.90
18876;DHT22;9570;50.854;13.778;2022-11-20T05:53:23;-6.50;99.90
18876;DHT22;9570;50.854;13.778;2022-11-20T05:58:28;-6.50;99.90
18876;DHT22;9570;50.854;13.778;2022-11-20T06:00:54;-6.50;99.90
18876;DHT22;9570;50.854;13.778;2022-11-20T06:03:20;-6.50;99.90
18876;DHT22;9570;50.854;13.778;2022-11-20T06:05:46;-6.50;99.90
18876;DHT22;9570;50.854;13.778;2022-11-20T06:08:12;-6.50;99.90
18876;DHT22;9570;50.854;13.778;2022-11-20T06:10:37;-6.50;99.90
18876;DHT22;9570;50.854;13.778;2022-11-20T06:13:03;-6.50;99.90
18876;DHT22;9570;50.854;13.778;2022-11-20T06:15:28;-6.50;99.90
18876;DHT22;9570;50.854;13.778;2022-11-20T06:17:54;-6.50;99.90
18876;DHT22;9570;50.854;13.778;2022-11-20T06:20:21;-6.50;99.90
18876;DHT22;9570;50.854;13.778;2022-11-20T06:22:46;-6.50;99.90
18876;DHT22;9570;50.854;13.778;2022-11-20T06:25:12;-6.50;99.90
18876;DHT22;9570;50.854;13.778;2022-11-20T06:27:38;-6.50;99.90
18876;DHT22;9570;50.854;13.778;2022-11-20T06:30:04;-6.40;99.90
18876;DHT22;9570;50.854;13.778;2022-11-20T06:32:30;-6.40;99.90
18876;DHT22;9570;50.854;13.778;2022-11-20T06:34:55;-6.40;99.90
18876;DHT22;9570;50.854;13.778;2022-11-20T06:37:21;-6.40;99.90
18876;DHT22;9570;50.854;13.778;2022-11-20T06:39:46;-6.40;99.90
18876;DHT22;9570;50.854;13.778;2022-11-20T06:42:12;-6.50;99.90
18876;DHT22;9570;50.854;13.778;2022-11-20T06:44:37;-6.40;99.90
18876;DHT22;9570;50.854;13.778;2022-11-20T06:47:03;-6.40;99.90
18876;DHT22;9570;50.854;13.778;2022-11-20T06:49:28;-6.40;99.90
18876;DHT22;9570;50.854;13.778;2022-11-20T06:51:54;-6.40;99.90
18876;DHT22;9570;50.854;13.778;2022-11-20T06:54:19;-6.40;99.90
18876;DHT22;9570;50.854;13.778;2022-11-20T06:56:48;-6.40;99.90
18876;DHT22;9570;50.854;13.778;2022-11-20T06:59:14;-6.40;99.90
18876;DHT22;9570;50.854;13.778;2022-11-20T07:01:39;-6.40;99.90
18876;DHT22;9570;50.854;13.778;2022-11-20T07:04:05;-6.40;99.90
18876;DHT22;9570;50.854;13.778;2022-11-20T07:06:30;-6.40;99.90
18876;DHT22;9570;50.854;13.778;2022-11-20T07:08:56;-6.40;99.90
18876;DHT22;9570;50.854;13.778;2022-11-20T07:11:22;-6.40;99.90
18876;DHT22;9570;50.854;13.778;2022-11-20T07:13:47;-6.40;99.90
18876;DHT22;9570;50.854;13.778;2022-11-20T07:16:13;-6.30;99.90
18876;DHT22;9570;50.854;13.778;2022-11-20T07:18:38;-6.30;99.90
18876;DHT22;9570;50.854;13.778;2022-11-20T07:21:06;-6.30;99.90
18876;DHT22;9570;50.854;13.778;2022-11-20T07:23:32;-6.20;99.90
18876;DHT22;9570;50.854;13.778;2022-11-20T07:25:58;-6.10;99.90
18876;DHT22;9570;50.854;13.778;2022-11-20T07:28:27;-5.90;99.90
18876;DHT22;9570;50.854;13.778;2022-11-20T07:30:53;-5.50;99.90
18876;DHT22;9570;50.854;13.778;2022-11-20T07:33:19;-5.10;99.90
18876;DHT22;9570;50.854;13.778;2022-11-20T07:35:45;-4.60;99.90
18876;DHT22;9570;50.854;13.778;2022-11-20T07:38:10;-4.30;99.90
18876;DHT22;9570;50.854;13.778;2022-11-20T07:40:36;-3.80;99.90
18876;DHT22;9570;50.854;13.778;2022-11-20T07:43:01;-3.30;99.90
18876;DHT22;9570;50.854;13.778;2022-11-20T07:45:27;-3.00;99.90
18876;DHT22;9570;50.854;13.778;2022-11-20T07:47:53;-2.70;99.90
18876;DHT22;9570;50.854;13.778;2022-11-20T07:50:19;-2.40;99.90
18876;DHT22;9570;50.854;13.778;2022-11-20T07:52:45;-2.00;99.90
18876;DHT22;9570;50.854;13.778;2022-11-20T07:55:10;-1.70;99.90
18876;DHT22;9570;50.854;13.778;2022-11-20T07:57:36;-1.60;99.90
18876;DHT22;9570;50.854;13.778;2022-11-20T08:00:03;-1.40;99.90
18876;DHT22;9570;50.854;13.778;2022-11-20T08:02:29;-1.00;99.90
18876;DHT22;9570;50.854;13.778;2022-11-20T08:04:54;-0.90;99.90
18876;DHT22;9570;50.854;13.778;2022-11-20T08:07:20;-0.60;99.90
18876;DHT22;9570;50.854;13.778;2022-11-20T08:09:45;-0.30;99.90
18876;DHT22;9570;50.854;13.778;2022-11-20T08:12:19;0.00;99.90
18876;DHT22;9570;50.854;13.778;2022-11-20T08:15:04;0.10;99.90
18876;DHT22;9570;50.854;13.778;2022-11-20T08:17:30;0.40;99.90
18876;DHT22;9570;50.854;13.778;2022-11-20T08:19:55;0.70;99.90
18876;DHT22;9570;50.854;13.778;2022-11-20T08:22:21;0.90;99.90
18876;DHT22;9570;50.854;13.778;2022-11-20T08:24:46;1.10;99.90
18876;DHT22;9570;50.854;13.778;2022-11-20T08:27:13;1.40;99.90
18876;DHT22;9570;50.854;13.778;2022-11-20T08:29:38;1.70;99.90
18876;DHT22;9570;50.854;13.778;2022-11-20T08:32:04;1.70;99.90
18876;DHT22;9570;50.854;13.778;2022-11-20T08:34:29;2.00;99.90
18876;DHT22;9570;50.854;13.778;2022-11-20T08:36:55;2.20;99.90
18876;DHT22;9570;50.854;13.778;2022-11-20T08:39:20;2.30;99.90
18876;DHT22;9570;50.854;13.778;2022-11-20T08:41:46;2.40;99.90
18876;DHT22;9570;50.854;13.778;2022-11-20T08:44:11;2.70;99.90
18876;DHT22;9570;50.854;13.778;2022-11-20T08:46:39;3.00;99.90
18876;DHT22;9570;50.854;13.778;2022-11-20T08:49:07;3.30;99.90
18876;DHT22;9570;50.854;13.778;2022-11-20T08:51:33;3.40;99.90
18876;DHT22;9570;50.854;13.778;2022-11-20T08:53:59;3.50;99.90
18876;DHT22;9570;50.854;13.778;2022-11-20T08:56:24;3.70;99.90
18876;DHT22;9570;50.854;13.778;2022-11-20T08:58:51;3.90;99.90
18876;DHT22;9570;50.854;13.778;2022-11-20T09:01:20;4.10;99.90
18876;DHT22;9570;50.854;13.778;2022-11-20T09:03:46;4.50;99.90
18876;DHT22;9570;50.854;13.778;2022-11-20T09:06:12;4.70;99.90
18876;DHT22;9570;50.854;13.778;2022-11-20T09:08:38;4.80;99.90
18876;DHT22;9570;50.854;13.778;2022-11-20T09:11:05;4.80;99.90
18876;DHT22;9570;50.854;13.778;2022-11-20T09:13:32;5.10;99.90
18876;DHT22;9570;50.854;13.778;2022-11-20T09:16:04;5.20;99.90
18876;DHT22;9570;50.854;13.778;2022-11-20T09:18:31;5.40;99.90
18876;DHT22;9570;50.854;13.778;2022-11-20T09:21:03;5.40;99.90
18876;DHT22;9570;50.854;13.778;2022-11-20T09:23:34;5.40;99.90
18876;DHT22;9570;50.854;13.778;2022-11-20T09:26:05;5.40;99.90
18876;DHT22;9570;50.854;13.778;2022-11-20T09:28:31;5.50;99.90
18876;DHT22;9570;50.854;13.778;2022-11-20T09:30:56;5.40;99.90
18876;DHT22;9570;50.854;13.778;2022-11-20T09:33:22;5.50;99.90
18876;DHT22;9570;50.854;13.778;2022-11-20T09:35:48;5.60;99.90
18876;DHT22;9570;50.854;13.778;2022-11-20T09:38:13;5.60;99.90
18876;DHT22;9570;50.854;13.778;2022-11-20T09:41:04;5.60;99.90
18876;DHT22;9570;50.854;13.778;2022-11-20T09:43:57;5.70;99.90
18876;DHT22;9570;50.854;13.778;2022-11-20T09:46:41;5.60;99.90
18876;DHT22;9570;50.854;13.778;2022-11-20T09:51:44;5.00;99.90
18876;DHT22;9570;50.854;13.778;2022-11-20T09:54:20;4.90;99.90
18876;DHT22;9570;50.854;13.778;2022-11-20T09:56:53;5.20;99.90
18876;DHT22;9570;50.854;13.778;2022-11-20T10:01:55;5.50;99.90
18876;DHT22;9570;50.854;13.778;2022-11-20T10:04:22;5.60;99.90
18876;DHT22;9570;50.854;13.778;2022-11-20T10:07:47;5.80;99.90
18876;DHT22;9570;50.854;13.778;2022-11-20T10:09:55;6.00;99.90
18876;DHT22;9570;50.854;13.778;2022-11-20T10:12:46;6.20;99.90
18876;DHT22;9570;50.854;13.778;2022-11-20T10:18:38;6.30;99.90
18876;DHT22;9570;50.854;13.778;2022-11-20T10:21:23;5.80;99.90
18876;DHT22;9570;50.854;13.778;2022-11-20T10:26:46;4.90;99.90
18876;DHT22;9570;50.854;13.778;2022-11-20T10:29:18;4.70;99.90
18876;DHT22;9570;50.854;13.778;2022-11-20T10:31:46;3.90;99.90
18876;DHT22;9570;50.854;13.778;2022-11-20T10:36:54;3.70;99.90
18876;DHT22;9570;50.854;13.778;2022-11-20T10:39:33;3.70;99.90
18876;DHT22;9570;50.854;13.778;2022-11-20T10:42:00;3.80;99.90
18876;DHT22;9570;50.854;13.778;2022-11-20T10:44:27;3.90;99.90
18876;DHT22;9570;50.854;13.778;2022-11-20T10:47:17;3.90;99.90
18876;DHT22;9570;50.854;13.778;2022-11-20T10:49:49;3.90;99.90
18876;DHT22;9570;50.854;13.778;2022-11-20T10:52:31;3.90;99.90
18876;DHT22;9570;50.854;13.778;2022-11-20T11:00:32;3.80;99.90
18876;DHT22;9570;50.854;13.778;2022-11-20T11:02:58;3.90;99.90
18876;DHT22;9570;50.854;13.778;2022-11-20T11:08:03;3.50;99.90
18876;DHT22;9570;50.854;13.778;2022-11-20T11:13:07;2.90;99.90
18876;DHT22;9570;50.854;13.778;2022-11-20T11:15:44;3.00;99.90
18876;DHT22;9570;50.854;13.778;2022-11-20T11:18:10;3.00;99.90
18876;DHT22;9570;50.854;13.778;2022-11-20T11:20:36;2.90;99.90
18876;DHT22;9570;50.854;13.778;2022-11-20T11:23:02;3.00;99.90
18876;DHT22;9570;50.854;13.778;2022-11-20T11:25:35;2.80;99.90
18876;DHT22;9570;50.854;13.778;2022-11-20T11:28:20;2.80;99.90
18876;DHT22;9570;50.854;13.778;2022-11-20T11:30:46;2.70;99.90
18876;DHT22;9570;50.854;13.778;2022-11-20T11:33:28;2.60;99.90
18876;DHT22;9570;50.854;13.778;2022-11-20T11:36:00;2.60;99.90
18876;DHT22;9570;50.854;13.778;2022-11-20T11:38:39;2.40;99.90
18876;DHT22;9570;50.854;13.778;2022-11-20T11:41:07;2.40;99.90
18876;DHT22;9570;50.854;13.778;2022-11-20T11:43:36;2.30;99.90
18876;DHT22;9570;50.854;13.778;2022-11-20T12:00:02;2.30;99.90
18876;DHT22;9570;50.854;13.778;2022-11-20T12:03:04;2.50;99.90
18876;DHT22;9570;50.854;13.778;2022-11-20T12:05:40;2.70;99.90
18876;DHT22;9570;50.854;13.778;2022-11-20T12:08:24;2.70;99.90
18876;DHT22;9570;50.854;13.778;2022-11-20T12:10:58;2.60;99.90
18876;DHT22;9570;50.854;13.778;2022-11-20T12:16:04;2.70;99.90
18876;DHT22;9570;50.854;13.778;2022-11-20T12:18:30;3.00;99.90
18876;DHT22;9570;50.854;13.778;2022-11-20T12:29:27;2.80;99.90
18876;DHT22;9570;50.854;13.778;2022-11-20T12:32:36;2.80;99.90
18876;DHT22;9570;50.854;13.778;2022-11-20T12:55:49;3.00;99.90
18876;DHT22;9570;50.854;13.778;2022-11-20T12:58:39;3.10;99.90
18876;DHT22;9570;50.854;13.778;2022-11-20T13:01:29;3.00;99.90
18876;DHT22;9570;50.854;13.778;2022-11-20T13:06:48;2.80;99.90
18876;DHT22;9570;50.854;13.778;2022-11-20T13:09:17;2.80;99.90
18876;DHT22;9570;50.854;13.778;2022-11-20T13:14:47;2.60;99.90
18876;DHT22;9570;50.854;13.778;2022-11-20T13:17:22;2.40;99.90
18876;DHT22;9570;50.854;13.778;2022-11-20T13:19:54;2.50;99.90
18876;DHT22;9570;50.854;13.778;2022-11-20T13:22:27;2.60;99.90
18876;DHT22;9570;50.854;13.778;2022-11-20T13:24:53;2.40;99.90
18876;DHT22;9570;50.854;13.778;2022-11-20T13:27:21;2.40;99.90
18876;DHT22;9570;50.854;13.778;2022-11-20T13:30:14;2.40;99.90
18876;DHT22;9570;50.854;13.778;2022-11-20T13:32:55;2.50;99.90
18876;DHT22;9570;50.854;13.778;2022-11-20T13:35:36;2.40;99.90
18876;DHT22;9570;50.854;13.778;2022-11-20T13:38:13;2.40;99.90
18876;DHT22;9570;50.854;13.778;2022-11-20T13:40:52;2.40;99.90
18876;DHT22;9570;50.854;13.778;2022-11-20T13:46:07;2.50;99.90
18876;DHT22;9570;50.854;13.778;2022-11-20T13:48:46;2.70;99.90
18876;DHT22;9570;50.854;13.778;2022-11-20T13:57:10;2.40;99.90
18876;DHT22;9570;50.854;13.778;2022-11-20T14:02:16;2.30;99.90
18876;DHT22;9570;50.854;13.778;2022-11-20T14:04:49;2.20;99.90
18876;DHT22;9570;50.854;13.778;2022-11-20T14:07:19;2.30;99.90
18876;DHT22;9570;50.854;13.778;2022-11-20T14:09:54;2.50;99.90
18876;DHT22;9570;50.854;13.778;2022-11-20T14:12:28;2.50;99.90
18876;DHT22;9570;50.854;13.778;2022-11-20T14:14:54;2.50;99.90
18876;DHT22;9570;50.854;13.778;2022-11-20T14:19:59;2.20;99.90
18876;DHT22;9570;50.854;13.778;2022-11-20T14:22:26;2.20;99.90
18876;DHT22;9570;50.854;13.778;2022-11-20T14:27:51;2.00;99.90
18876;DHT22;9570;50.854;13.778;2022-11-20T14:30:20;1.90;99.90
18876;DHT22;9570;50.854;13.778;2022-11-20T14:32:47;1.90;99.90
18876;DHT22;9570;50.854;13.778;2022-11-20T14:35:31;1.80;99.90
18876;DHT22;9570;50.854;13.778;2022-11-20T14:38:01;1.80;99.90
18876;DHT22;9570;50.854;13.778;2022-11-20T14:40:35;1.80;99.90
18876;DHT22;9570;50.854;13.778;2022-11-20T14:43:02;1.90;99.90
18876;DHT22;9570;50.854;13.778;2022-11-20T14:45:41;2.00;99.90
18876;DHT22;9570;50.854;13.778;2022-11-20T14:48:09;2.00;99.90
18876;DHT22;9570;50.854;13.778;2022-11-20T14:50:35;1.90;99.90
18876;DHT22;9570;50.854;13.778;2022-11-20T14:53:03;1.90;99.90
18876;DHT22;9570;50.854;13.778;2022-11-20T14:55:33;1.80;99.90
18876;DHT22;9570;50.854;13.778;2022-11-20T14:58:05;1.70;99.90
18876;DHT22;9570;50.854;13.778;2022-11-20T15:00:33;1.80;99.90
18876;DHT22;9570;50.854;13.778;2022-11-20T15:02:59;1.80;99.90
18876;DHT22;9570;50.854;13.778;2022-11-20T15:05:45;1.80;99.90
18876;DHT22;9570;50.854;13.778;2022-11-20T15:08:12;1.80;99.90
18876;DHT22;9570;50.854;13.778;2022-11-20T15:10:37;1.70;99.90
18876;DHT22;9570;50.854;13.778;2022-11-20T15:13:10;1.70;99.90
18876;DHT22;9570;50.854;13.778;2022-11-20T15:15:44;1.70;99.90
18876;DHT22;9570;50.854;13.778;2022-11-20T15:18:13;1.70;99.90
18876;DHT22;9570;50.854;13.778;2022-11-20T15:20:39;1.70;99.90
18876;DHT22;9570;50.854;13.778;2022-11-20T15:23:13;1.60;99.90
18876;DHT22;9570;50.854;13.778;2022-11-20T15:25:39;1.40;99.90
18876;DHT22;9570;50.854;13.778;2022-11-20T15:30:45;1.40;99.90
18876;DHT22;9570;50.854;13.778;2022-11-20T15:33:11;1.30;99.90
18876;DHT22;9570;50.854;13.778;2022-11-20T15:35:37;1.40;99.90
18876;DHT22;9570;50.854;13.778;2022-11-20T15:38:03;1.50;99.90
18876;DHT22;9570;50.854;13.778;2022-11-20T15:40:28;1.50;99.90
18876;DHT22;9570;50.854;13.778;2022-11-20T15:42:54;1.50;99.90
18876;DHT22;9570;50.854;13.778;2022-11-20T15:45:53;1.40;99.90
18876;DHT22;9570;50.854;13.778;2022-11-20T15:48:30;1.40;99.90
18876;DHT22;9570;50.854;13.778;2022-11-20T15:51:01;1.40;99.90
18876;DHT22;9570;50.854;13.778;2022-11-20T15:53:28;1.40;99.90
18876;DHT22;9570;50.854;13.778;2022-11-20T15:55:54;1.40;99.90
18876;DHT22;9570;50.854;13.778;2022-11-20T15:58:19;1.50;99.90
18876;DHT22;9570;50.854;13.778;2022-11-20T16:00:45;1.40;99.90
18876;DHT22;9570;50.854;13.778;2022-11-20T16:03:12;1.40;99.90
18876;DHT22;9570;50.854;13.778;2022-11-20T16:05:38;1.40;99.90
18876;DHT22;9570;50.854;13.778;2022-11-20T16:08:04;1.30;99.90
18876;DHT22;9570;50.854;13.778;2022-11-20T16:10:30;1.30;99.90
18876;DHT22;9570;50.854;13.778;2022-11-20T16:12:55;1.30;99.90
18876;DHT22;9570;50.854;13.778;2022-11-20T16:15:39;1.20;99.90
18876;DHT22;9570;50.854;13.778;2022-11-20T16:18:13;1.20;99.90
18876;DHT22;9570;50.854;13.778;2022-11-20T16:20:39;1.20;99.90
18876;DHT22;9570;50.854;13.778;2022-11-20T16:23:05;1.10;99.90
18876;DHT22;9570;50.854;13.778;2022-11-20T16:25:31;1.10;99.90
18876;DHT22;9570;50.854;13.778;2022-11-20T16:27:57;1.10;99.90
18876;DHT22;9570;50.854;13.778;2022-11-20T16:30:22;1.20;99.90
18876;DHT22;9570;50.854;13.778;2022-11-20T16:32:48;1.20;99.90
18876;DHT22;9570;50.854;13.778;2022-11-20T16:35:14;1.20;99.90
18876;DHT22;9570;50.854;13.778;2022-11-20T16:37:40;1.10;99.90
18876;DHT22;9570;50.854;13.778;2022-11-20T16:40:06;1.00;99.90
18876;DHT22;9570;50.854;13.778;2022-11-20T16:42:35;1.00;99.90
18876;DHT22;9570;50.854;13.778;2022-11-20T16:45:01;0.90;99.90
18876;DHT22;9570;50.854;13.778;2022-11-20T16:47:26;0.90;99.90
18876;DHT22;9570;50.854;13.778;2022-11-20T16:49:52;0.80;99.90
18876;DHT22;9570;50.854;13.778;2022-11-20T16:52:17;0.60;99.90
18876;DHT22;9570;50.854;13.778;2022-11-20T16:54:43;0.60;99.90
18876;DHT22;9570;50.854;13.778;2022-11-20T16:57:08;0.70;99.90
18876;DHT22;9570;50.854;13.778;2022-11-20T16:59:34;0.70;99.90
18876;DHT22;9570;50.854;13.778;2022-11-20T17:01:59;0.70;99.90
18876;DHT22;9570;50.854;13.778;2022-11-20T17:04:25;0.80;99.90
18876;DHT22;9570;50.854;13.778;2022-11-20T17:06:50;0.70;99.90
18876;DHT22;9570;50.854;13.778;2022-11-20T17:09:16;0.70;99.90
18876;DHT22;9570;50.854;13.778;2022-11-20T17:11:42;0.60;99.90
18876;DHT22;9570;50.854;13.778;2022-11-20T17:14:09;0.50;99.90
18876;DHT22;9570;50.854;13.778;2022-11-20T17:16:35;0.50;99.90
18876;DHT22;9570;50.854;13.778;2022-11-20T17:19:02;0.50;99.90
18876;DHT22;9570;50.854;13.778;2022-11-20T17:21:28;0.50;99.90
18876;DHT22;9570;50.854;13.778;2022-11-20T17:23:54;0.50;99.90
18876;DHT22;9570;50.854;13.778;2022-11-20T17:26:22;0.40;99.90
18876;DHT22;9570;50.854;13.778;2022-11-20T17:29:03;0.40;99.90
18876;DHT22;9570;50.854;13.778;2022-11-20T17:31:31;0.40;99.90
18876;DHT22;9570;50.854;13.778;2022-11-20T17:33:57;0.40;99.90
18876;DHT22;9570;50.854;13.778;2022-11-20T17:36:24;0.20;99.90
18876;DHT22;9570;50.854;13.778;2022-11-20T17:38:50;0.30;99.90